sensor_id;sensor_type;location;lat;lon;timestamp;P1;durP1;ratioP1;P2;durP2;ratioP2
40953;SDS011;26686;50.130;8.710;2023-04-03T00:02:46;2.83;;;1.00;;
40953;SDS011;26686;50.130;8.710;2023-04-03T00:07:48;4.78;;;2.00;;
40953;SDS011;26686;50.130;8.710;2023-04-03T00:12:50;2.42;;;1.77;;
40953;SDS011;26686;50.130;8.710;2023-04-03T00:17:52;3.30;;;2.35;;
40953;SDS011;26686;50.130;8.710;2023-04-03T00:22:54;3.72;;;1.98;;
40953;SDS011;26686;50.130;8.710;2023-04-03T00:27:56;2.97;;;2.25;;
40953;SDS011;26686;50.130;8.710;2023-04-03T00:32:59;2.63;;;1.80;;
40953;SDS011;26686;50.130;8.710;2023-04-03T00:38:02;3.20;;;1.75;;
40953;SDS011;26686;50.130;8.710;2023-04-03T00:43:16;3.20;;;1.30;;
40953;SDS011;26686;50.130;8.710;2023-04-03T00:48:23;1.77;;;1.30;;
40953;SDS011;26686;50.130;8.710;2023-04-03T00:53:37;4.47;;;1.15;;
40953;SDS011;26686;50.130;8.710;2023-04-03T00:58:44;1.10;;;1.00;;
40953;SDS011;26686;50.130;8.710;2023-04-03T01:03:49;4.40;;;1.13;;
40953;SDS011;26686;50.130;8.710;2023-04-03T01:08:51;2.72;;;1.10;;
40953;SDS011;26686;50.130;8.710;2023-04-03T01:13:54;2.10;;;0.90;;
40953;SDS011;26686;50.130;8.710;2023-04-03T01:18:55;1.50;;;1.33;;
40953;SDS011;26686;50.130;8.710;2023-04-03T01:24:43;1.98;;;1.58;;
40953;SDS011;26686;50.130;8.710;2023-04-03T01:29:23;3.90;;;1.40;;
40953;SDS011;26686;50.130;8.710;2023-04-03T01:34:25;2.00;;;1.25;;
40953;SDS011;26686;50.130;8.710;2023-04-03T01:39:28;3.17;;;1.17;;
40953;SDS011;26686;50.130;8.710;2023-04-03T01:44:29;1.65;;;1.08;;
40953;SDS011;26686;50.130;8.710;2023-04-03T01:49:31;2.47;;;1.10;;
40953;SDS011;26686;50.130;8.710;2023-04-03T01:54:32;2.15;;;0.80;;
40953;SDS011;26686;50.130;8.710;2023-04-03T01:59:34;4.05;;;1.10;;
40953;SDS011;26686;50.130;8.710;2023-04-03T02:04:36;4.15;;;1.33;;
40953;SDS011;26686;50.130;8.710;2023-04-03T02:09:37;3.13;;;0.95;;
40953;SDS011;26686;50.130;8.710;2023-04-03T02:14:39;3.42;;;1.40;;
40953;SDS011;26686;50.130;8.710;2023-04-03T02:19:40;5.03;;;1.25;;
40953;SDS011;26686;50.130;8.710;2023-04-03T02:24:42;2.88;;;1.40;;
40953;SDS011;26686;50.130;8.710;2023-04-03T02:29:44;2.88;;;1.05;;
40953;SDS011;26686;50.130;8.710;2023-04-03T02:34:45;2.83;;;1.15;;
40953;SDS011;26686;50.130;8.710;2023-04-03T02:39:47;2.45;;;0.90;;
40953;SDS011;26686;50.130;8.710;2023-04-03T02:44:49;1.58;;;1.13;;
40953;SDS011;26686;50.130;8.710;2023-04-03T02:49:51;1.02;;;0.88;;
40953;SDS011;26686;50.130;8.710;2023-04-03T02:54:53;3.25;;;0.98;;
40953;SDS011;26686;50.130;8.710;2023-04-03T02:59:55;4.30;;;0.80;;
40953;SDS011;26686;50.130;8.710;2023-04-03T03:04:57;2.75;;;1.17;;
40953;SDS011;26686;50.130;8.710;2023-04-03T03:09:58;3.10;;;1.40;;
40953;SDS011;26686;50.130;8.710;2023-04-03T03:15:00;3.00;;;0.73;;
40953;SDS011;26686;50.130;8.710;2023-04-03T03:20:05;2.40;;;1.00;;
40953;SDS011;26686;50.130;8.710;2023-04-03T03:25:07;3.58;;;0.80;;
40953;SDS011;26686;50.130;8.710;2023-04-03T03:30:09;1.58;;;0.73;;
40953;SDS011;26686;50.130;8.710;2023-04-03T03:35:11;3.35;;;1.38;;
40953;SDS011;26686;50.130;8.710;2023-04-03T03:40:12;3.55;;;0.98;;
40953;SDS011;26686;50.130;8.710;2023-04-03T03:45:14;2.90;;;0.85;;
40953;SDS011;26686;50.130;8.710;2023-04-03T03:50:16;1.45;;;0.68;;
40953;SDS011;26686;50.130;8.710;2023-04-03T03:55:17;3.28;;;1.15;;
40953;SDS011;26686;50.130;8.710;2023-04-03T04:00:19;1.65;;;0.68;;
40953;SDS011;26686;50.130;8.710;2023-04-03T04:05:21;4.60;;;1.42;;
40953;SDS011;26686;50.130;8.710;2023-04-03T04:10:23;2.13;;;1.00;;
40953;SDS011;26686;50.130;8.710;2023-04-03T04:15:25;4.03;;;1.55;;
40953;SDS011;26686;50.130;8.710;2023-04-03T04:20:28;3.72;;;1.35;;
40953;SDS011;26686;50.130;8.710;2023-04-03T04:25:29;2.03;;;1.05;;
40953;SDS011;26686;50.130;8.710;2023-04-03T04:30:31;2.60;;;1.30;;
40953;SDS011;26686;50.130;8.710;2023-04-03T04:35:33;3.55;;;0.95;;
40953;SDS011;26686;50.130;8.710;2023-04-03T04:40:35;3.50;;;0.82;;
40953;SDS011;26686;50.130;8.710;2023-04-03T04:45:38;3.47;;;0.95;;
40953;SDS011;26686;50.130;8.710;2023-04-03T04:50:40;4.15;;;1.13;;
40953;SDS011;26686;50.130;8.710;2023-04-03T04:55:42;2.42;;;1.23;;
40953;SDS011;26686;50.130;8.710;2023-04-03T05:00:44;3.38;;;0.95;;
40953;SDS011;26686;50.130;8.710;2023-04-03T05:05:45;2.80;;;1.65;;
40953;SDS011;26686;50.130;8.710;2023-04-03T05:10:47;3.47;;;1.70;;
40953;SDS011;26686;50.130;8.710;2023-04-03T05:15:49;1.75;;;0.98;;
40953;SDS011;26686;50.130;8.710;2023-04-03T05:20:51;3.20;;;1.17;;
40953;SDS011;26686;50.130;8.710;2023-04-03T05:25:52;2.20;;;1.08;;
40953;SDS011;26686;50.130;8.710;2023-04-03T05:30:54;4.40;;;1.40;;
40953;SDS011;26686;50.130;8.710;2023-04-03T05:36:01;4.10;;;1.90;;
40953;SDS011;26686;50.130;8.710;2023-04-03T05:41:04;5.03;;;2.08;;
40953;SDS011;26686;50.130;8.710;2023-04-03T05:46:13;2.30;;;1.10;;
40953;SDS011;26686;50.130;8.710;2023-04-03T05:51:21;5.55;;;1.90;;
40953;SDS011;26686;50.130;8.710;2023-04-03T05:56:27;5.47;;;1.60;;
40953;SDS011;26686;50.130;8.710;2023-04-03T06:01:28;3.58;;;1.60;;
40953;SDS011;26686;50.130;8.710;2023-04-03T06:06:43;5.15;;;1.92;;
40953;SDS011;26686;50.130;8.710;2023-04-03T06:11:50;3.03;;;1.67;;
40953;SDS011;26686;50.130;8.710;2023-04-03T06:16:53;2.78;;;1.27;;
40953;SDS011;26686;50.130;8.710;2023-04-03T06:21:55;6.43;;;1.60;;
40953;SDS011;26686;50.130;8.710;2023-04-03T06:26:57;7.30;;;2.35;;
40953;SDS011;26686;50.130;8.710;2023-04-03T06:31:59;3.35;;;1.92;;
40953;SDS011;26686;50.130;8.710;2023-04-03T06:37:01;5.43;;;1.70;;
40953;SDS011;26686;50.130;8.710;2023-04-03T06:42:03;5.75;;;2.70;;
40953;SDS011;26686;50.130;8.710;2023-04-03T06:47:05;5.50;;;1.77;;
40953;SDS011;26686;50.130;8.710;2023-04-03T06:52:07;3.88;;;1.92;;
40953;SDS011;26686;50.130;8.710;2023-04-03T06:57:09;6.15;;;1.60;;
40953;SDS011;26686;50.130;8.710;2023-04-03T07:02:11;2.63;;;1.48;;
40953;SDS011;26686;50.130;8.710;2023-04-03T07:07:13;5.35;;;2.30;;
40953;SDS011;26686;50.130;8.710;2023-04-03T07:12:15;6.07;;;2.25;;
40953;SDS011;26686;50.130;8.710;2023-04-03T07:17:18;4.28;;;1.65;;
40953;SDS011;26686;50.130;8.710;2023-04-03T07:22:21;5.10;;;1.60;;
40953;SDS011;26686;50.130;8.710;2023-04-03T07:27:23;2.13;;;1.25;;
40953;SDS011;26686;50.130;8.710;2023-04-03T07:32:25;5.18;;;1.73;;
40953;SDS011;26686;50.130;8.710;2023-04-03T07:37:27;3.42;;;1.98;;
40953;SDS011;26686;50.130;8.710;2023-04-03T07:42:29;3.70;;;1.58;;
40953;SDS011;26686;50.130;8.710;2023-04-03T07:47:30;3.83;;;1.63;;
40953;SDS011;26686;50.130;8.710;2023-04-03T07:52:32;2.38;;;1.52;;
40953;SDS011;26686;50.130;8.710;2023-04-03T07:57:34;4.43;;;1.67;;
40953;SDS011;26686;50.130;8.710;2023-04-03T08:02:36;4.35;;;1.90;;
40953;SDS011;26686;50.130;8.710;2023-04-03T08:07:38;3.40;;;1.55;;
40953;SDS011;26686;50.130;8.710;2023-04-03T08:12:40;4.72;;;1.55;;
40953;SDS011;26686;50.130;8.710;2023-04-03T08:17:41;3.53;;;1.63;;
40953;SDS011;26686;50.130;8.710;2023-04-03T08:22:43;4.03;;;1.58;;
40953;SDS011;26686;50.130;8.710;2023-04-03T08:27:45;2.78;;;1.35;;
40953;SDS011;26686;50.130;8.710;2023-04-03T08:32:47;4.68;;;2.03;;
40953;SDS011;26686;50.130;8.710;2023-04-03T08:37:48;4.88;;;1.65;;
40953;SDS011;26686;50.130;8.710;2023-04-03T08:48:27;3.95;;;1.50;;
40953;SDS011;26686;50.130;8.710;2023-04-03T08:53:35;4.97;;;2.33;;
40953;SDS011;26686;50.130;8.710;2023-04-03T08:58:42;3.53;;;1.73;;
40953;SDS011;26686;50.130;8.710;2023-04-03T09:03:54;3.22;;;1.30;;
40953;SDS011;26686;50.130;8.710;2023-04-03T09:09:13;2.65;;;1.35;;
40953;SDS011;26686;50.130;8.710;2023-04-03T09:14:19;2.65;;;1.55;;
40953;SDS011;26686;50.130;8.710;2023-04-03T09:24:56;2.72;;;1.30;;
40953;SDS011;26686;50.130;8.710;2023-04-03T09:30:01;1.67;;;1.13;;
40953;SDS011;26686;50.130;8.710;2023-04-03T09:35:04;2.90;;;1.23;;
40953;SDS011;26686;50.130;8.710;2023-04-03T09:40:34;2.30;;;1.70;;
40953;SDS011;26686;50.130;8.710;2023-04-03T09:45:40;2.88;;;1.33;;
40953;SDS011;26686;50.130;8.710;2023-04-03T09:55:54;2.67;;;1.77;;
40953;SDS011;26686;50.130;8.710;2023-04-03T10:00:57;3.20;;;1.42;;
40953;SDS011;26686;50.130;8.710;2023-04-03T10:06:00;1.43;;;1.30;;
40953;SDS011;26686;50.130;8.710;2023-04-03T10:11:20;3.33;;;1.33;;
40953;SDS011;26686;50.130;8.710;2023-04-03T10:16:32;4.13;;;1.60;;
40953;SDS011;26686;50.130;8.710;2023-04-03T10:21:55;2.60;;;1.55;;
40953;SDS011;26686;50.130;8.710;2023-04-03T10:27:13;4.00;;;1.58;;
40953;SDS011;26686;50.130;8.710;2023-04-03T10:37:25;2.05;;;1.40;;
40953;SDS011;26686;50.130;8.710;2023-04-03T10:42:36;3.15;;;1.55;;
40953;SDS011;26686;50.130;8.710;2023-04-03T10:53:37;2.40;;;1.15;;
40953;SDS011;26686;50.130;8.710;2023-04-03T10:58:43;2.92;;;1.40;;
40953;SDS011;26686;50.130;8.710;2023-04-03T11:03:53;3.45;;;1.20;;
40953;SDS011;26686;50.130;8.710;2023-04-03T11:09:02;2.05;;;1.20;;
40953;SDS011;26686;50.130;8.710;2023-04-03T11:19:45;1.40;;;0.90;;
40953;SDS011;26686;50.130;8.710;2023-04-03T11:24:55;2.20;;;1.08;;
40953;SDS011;26686;50.130;8.710;2023-04-03T11:30:05;2.90;;;1.30;;
40953;SDS011;26686;50.130;8.710;2023-04-03T11:35:10;1.63;;;0.95;;
40953;SDS011;26686;50.130;8.710;2023-04-03T11:55:44;2.53;;;1.00;;
40953;SDS011;26686;50.130;8.710;2023-04-03T12:00:57;2.00;;;0.80;;
40953;SDS011;26686;50.130;8.710;2023-04-03T12:42:56;2.42;;;1.02;;
40953;SDS011;26686;50.130;8.710;2023-04-03T12:48:00;1.10;;;0.80;;
40953;SDS011;26686;50.130;8.710;2023-04-03T12:53:05;1.58;;;0.60;;
40953;SDS011;26686;50.130;8.710;2023-04-03T12:58:13;1.15;;;0.63;;
40953;SDS011;26686;50.130;8.710;2023-04-03T13:03:24;1.65;;;0.70;;
40953;SDS011;26686;50.130;8.710;2023-04-03T13:08:28;1.92;;;1.10;;
40953;SDS011;26686;50.130;8.710;2023-04-03T13:13:32;1.38;;;0.60;;
40953;SDS011;26686;50.130;8.710;2023-04-03T13:18:34;1.98;;;1.00;;
40953;SDS011;26686;50.130;8.710;2023-04-03T13:23:37;3.75;;;1.30;;
40953;SDS011;26686;50.130;8.710;2023-04-03T13:28:41;2.80;;;1.58;;
40953;SDS011;26686;50.130;8.710;2023-04-03T13:33:55;4.60;;;1.60;;
40953;SDS011;26686;50.130;8.710;2023-04-03T13:39:04;3.03;;;1.70;;
40953;SDS011;26686;50.130;8.710;2023-04-03T13:49:30;3.00;;;1.85;;
40953;SDS011;26686;50.130;8.710;2023-04-03T13:54:37;2.65;;;1.63;;
40953;SDS011;26686;50.130;8.710;2023-04-03T13:59:43;2.67;;;1.80;;
40953;SDS011;26686;50.130;8.710;2023-04-03T14:09:49;2.27;;;1.77;;
40953;SDS011;26686;50.130;8.710;2023-04-03T14:14:51;2.63;;;1.40;;
40953;SDS011;26686;50.130;8.710;2023-04-03T14:19:54;3.38;;;1.40;;
40953;SDS011;26686;50.130;8.710;2023-04-03T14:24:58;3.13;;;1.13;;
40953;SDS011;26686;50.130;8.710;2023-04-03T14:30:02;4.00;;;2.70;;
40953;SDS011;26686;50.130;8.710;2023-04-03T14:35:05;1.42;;;0.95;;
40953;SDS011;26686;50.130;8.710;2023-04-03T14:40:08;2.78;;;1.40;;
40953;SDS011;26686;50.130;8.710;2023-04-03T14:45:14;3.65;;;1.02;;
40953;SDS011;26686;50.130;8.710;2023-04-03T14:50:18;2.10;;;0.73;;
40953;SDS011;26686;50.130;8.710;2023-04-03T14:55:25;2.03;;;0.93;;
40953;SDS011;26686;50.130;8.710;2023-04-03T15:00:27;2.65;;;0.80;;
40953;SDS011;26686;50.130;8.710;2023-04-03T15:05:28;2.00;;;0.73;;
40953;SDS011;26686;50.130;8.710;2023-04-03T15:10:30;1.45;;;0.85;;
40953;SDS011;26686;50.130;8.710;2023-04-03T15:15:38;1.70;;;0.60;;
40953;SDS011;26686;50.130;8.710;2023-04-03T15:20:40;3.53;;;0.68;;
40953;SDS011;26686;50.130;8.710;2023-04-03T15:25:44;2.60;;;1.05;;
40953;SDS011;26686;50.130;8.710;2023-04-03T15:30:47;3.30;;;1.00;;
40953;SDS011;26686;50.130;8.710;2023-04-03T15:35:49;2.67;;;0.77;;
40953;SDS011;26686;50.130;8.710;2023-04-03T15:40:50;2.65;;;0.65;;
40953;SDS011;26686;50.130;8.710;2023-04-03T15:45:52;2.78;;;1.13;;
40953;SDS011;26686;50.130;8.710;2023-04-03T15:50:57;1.95;;;0.57;;
40953;SDS011;26686;50.130;8.710;2023-04-03T15:55:59;1.83;;;0.70;;
40953;SDS011;26686;50.130;8.710;2023-04-03T16:01:01;2.53;;;1.00;;
40953;SDS011;26686;50.130;8.710;2023-04-03T16:06:03;2.17;;;0.90;;
40953;SDS011;26686;50.130;8.710;2023-04-03T16:11:05;3.33;;;0.93;;
40953;SDS011;26686;50.130;8.710;2023-04-03T16:16:08;2.47;;;0.98;;
40953;SDS011;26686;50.130;8.710;2023-04-03T16:21:11;1.98;;;0.80;;
40953;SDS011;26686;50.130;8.710;2023-04-03T16:26:15;2.33;;;0.80;;
40953;SDS011;26686;50.130;8.710;2023-04-03T16:31:18;2.00;;;0.88;;
40953;SDS011;26686;50.130;8.710;2023-04-03T16:36:20;1.73;;;0.77;;
40953;SDS011;26686;50.130;8.710;2023-04-03T16:41:22;2.40;;;0.98;;
40953;SDS011;26686;50.130;8.710;2023-04-03T16:46:24;1.25;;;0.55;;
40953;SDS011;26686;50.130;8.710;2023-04-03T16:51:26;2.10;;;0.80;;
40953;SDS011;26686;50.130;8.710;2023-04-03T16:56:28;2.30;;;1.30;;
40953;SDS011;26686;50.130;8.710;2023-04-03T17:01:29;1.38;;;0.68;;
40953;SDS011;26686;50.130;8.710;2023-04-03T17:06:31;3.30;;;1.45;;
40953;SDS011;26686;50.130;8.710;2023-04-03T17:11:33;1.55;;;0.75;;
40953;SDS011;26686;50.130;8.710;2023-04-03T17:16:35;2.72;;;0.93;;
40953;SDS011;26686;50.130;8.710;2023-04-03T17:21:38;4.00;;;1.45;;
40953;SDS011;26686;50.130;8.710;2023-04-03T17:26:41;1.88;;;1.08;;
40953;SDS011;26686;50.130;8.710;2023-04-03T17:31:43;2.10;;;0.90;;
40953;SDS011;26686;50.130;8.710;2023-04-03T17:36:45;2.97;;;1.02;;
40953;SDS011;26686;50.130;8.710;2023-04-03T17:41:47;2.20;;;1.38;;
40953;SDS011;26686;50.130;8.710;2023-04-03T17:46:50;2.65;;;1.00;;
40953;SDS011;26686;50.130;8.710;2023-04-03T17:51:51;2.63;;;1.30;;
40953;SDS011;26686;50.130;8.710;2023-04-03T17:56:54;3.65;;;1.23;;
40953;SDS011;26686;50.130;8.710;2023-04-03T18:01:55;2.88;;;0.90;;
40953;SDS011;26686;50.130;8.710;2023-04-03T18:06:57;2.85;;;0.80;;
40953;SDS011;26686;50.130;8.710;2023-04-03T18:12:02;2.75;;;1.20;;
40953;SDS011;26686;50.130;8.710;2023-04-03T18:17:05;2.58;;;1.08;;
40953;SDS011;26686;50.130;8.710;2023-04-03T18:22:10;1.73;;;1.13;;
40953;SDS011;26686;50.130;8.710;2023-04-03T18:27:14;3.88;;;1.58;;
40953;SDS011;26686;50.130;8.710;2023-04-03T18:32:19;3.47;;;1.42;;
40953;SDS011;26686;50.130;8.710;2023-04-03T18:37:22;3.75;;;1.15;;
40953;SDS011;26686;50.130;8.710;2023-04-03T18:42:24;1.90;;;1.27;;
40953;SDS011;26686;50.130;8.710;2023-04-03T18:47:27;2.67;;;1.40;;
40953;SDS011;26686;50.130;8.710;2023-04-03T18:52:29;3.92;;;1.20;;
40953;SDS011;26686;50.130;8.710;2023-04-03T18:57:30;2.80;;;1.58;;
40953;SDS011;26686;50.130;8.710;2023-04-03T19:02:31;2.17;;;1.05;;
40953;SDS011;26686;50.130;8.710;2023-04-03T19:07:33;1.67;;;1.15;;
40953;SDS011;26686;50.130;8.710;2023-04-03T19:12:35;2.83;;;1.50;;
40953;SDS011;26686;50.130;8.710;2023-04-03T19:17:36;3.42;;;1.02;;
40953;SDS011;26686;50.130;8.710;2023-04-03T19:22:38;2.60;;;0.93;;
40953;SDS011;26686;50.130;8.710;2023-04-03T19:27:40;2.47;;;1.13;;
40953;SDS011;26686;50.130;8.710;2023-04-03T19:32:42;1.92;;;1.30;;
40953;SDS011;26686;50.130;8.710;2023-04-03T19:37:44;2.47;;;1.10;;
40953;SDS011;26686;50.130;8.710;2023-04-03T19:42:48;3.15;;;1.10;;
40953;SDS011;26686;50.130;8.710;2023-04-03T19:47:51;2.33;;;0.98;;
40953;SDS011;26686;50.130;8.710;2023-04-03T19:52:53;2.40;;;1.33;;
40953;SDS011;26686;50.130;8.710;2023-04-03T19:57:59;3.75;;;1.40;;
40953;SDS011;26686;50.130;8.710;2023-04-03T20:03:02;2.88;;;1.50;;
40953;SDS011;26686;50.130;8.710;2023-04-03T20:08:04;3.10;;;1.20;;
40953;SDS011;26686;50.130;8.710;2023-04-03T20:13:06;3.67;;;1.85;;
40953;SDS011;26686;50.130;8.710;2023-04-03T20:18:11;2.65;;;1.30;;
40953;SDS011;26686;50.130;8.710;2023-04-03T20:23:18;3.83;;;1.73;;
40953;SDS011;26686;50.130;8.710;2023-04-03T20:28:20;2.95;;;1.40;;
40953;SDS011;26686;50.130;8.710;2023-04-03T20:33:22;2.70;;;1.27;;
40953;SDS011;26686;50.130;8.710;2023-04-03T20:38:26;3.15;;;1.52;;
40953;SDS011;26686;50.130;8.710;2023-04-03T20:43:27;2.58;;;1.35;;
40953;SDS011;26686;50.130;8.710;2023-04-03T20:48:29;2.33;;;1.63;;
40953;SDS011;26686;50.130;8.710;2023-04-03T20:53:31;2.85;;;1.38;;
40953;SDS011;26686;50.130;8.710;2023-04-03T20:58:33;3.35;;;1.15;;
40953;SDS011;26686;50.130;8.710;2023-04-03T21:03:35;3.58;;;1.65;;
40953;SDS011;26686;50.130;8.710;2023-04-03T21:19:56;3.25;;;1.40;;
40953;SDS011;26686;50.130;8.710;2023-04-03T21:24:58;4.85;;;1.50;;
40953;SDS011;26686;50.130;8.710;2023-04-03T21:29:59;5.72;;;1.90;;
40953;SDS011;26686;50.130;8.710;2023-04-03T21:35:03;3.45;;;1.63;;
40953;SDS011;26686;50.130;8.710;2023-04-03T21:40:05;6.90;;;1.70;;
40953;SDS011;26686;50.130;8.710;2023-04-03T21:45:08;4.07;;;2.03;;
40953;SDS011;26686;50.130;8.710;2023-04-03T21:50:10;3.75;;;1.45;;
40953;SDS011;26686;50.130;8.710;2023-04-03T21:55:11;3.22;;;1.75;;
40953;SDS011;26686;50.130;8.710;2023-04-03T22:00:15;3.40;;;1.50;;
40953;SDS011;26686;50.130;8.710;2023-04-03T22:05:17;2.30;;;1.25;;
40953;SDS011;26686;50.130;8.710;2023-04-03T22:10:19;2.90;;;1.40;;
40953;SDS011;26686;50.130;8.710;2023-04-03T22:15:21;4.18;;;1.75;;
40953;SDS011;26686;50.130;8.710;2023-04-03T22:20:22;3.30;;;1.60;;
40953;SDS011;26686;50.130;8.710;2023-04-03T22:25:24;5.13;;;1.88;;
40953;SDS011;26686;50.130;8.710;2023-04-03T22:30:25;4.15;;;2.53;;
40953;SDS011;26686;50.130;8.710;2023-04-03T22:35:27;3.80;;;2.00;;
40953;SDS011;26686;50.130;8.710;2023-04-03T22:40:29;5.05;;;2.10;;
40953;SDS011;26686;50.130;8.710;2023-04-03T22:45:31;3.53;;;2.28;;
40953;SDS011;26686;50.130;8.710;2023-04-03T22:50:34;3.88;;;1.30;;
40953;SDS011;26686;50.130;8.710;2023-04-03T22:55:37;4.70;;;2.50;;
40953;SDS011;26686;50.130;8.710;2023-04-03T23:00:38;5.38;;;3.45;;
40953;SDS011;26686;50.130;8.710;2023-04-03T23:05:40;6.20;;;4.57;;
40953;SDS011;26686;50.130;8.710;2023-04-03T23:10:41;6.57;;;4.22;;
40953;SDS011;26686;50.130;8.710;2023-04-03T23:15:43;5.13;;;3.17;;
40953;SDS011;26686;50.130;8.710;2023-04-03T23:20:44;5.30;;;2.35;;
40953;SDS011;26686;50.130;8.710;2023-04-03T23:25:56;5.45;;;1.83;;
40953;SDS011;26686;50.130;8.710;2023-04-03T23:31:02;3.80;;;1.15;;
40953;SDS011;26686;50.130;8.710;2023-04-03T23:36:07;2.45;;;1.42;;
40953;SDS011;26686;50.130;8.710;2023-04-03T23:41:09;2.72;;;1.25;;
40953;SDS011;26686;50.130;8.710;2023-04-03T23:46:11;3.70;;;1.40;;
40953;SDS011;26686;50.130;8.710;2023-04-03T23:51:12;2.97;;;1.38;;
40953;SDS011;26686;50.130;8.710;2023-04-03T23:56:14;2.78;;;1.13;;
